Check out our new PWSWeather beta!
PWSweather.com
Personal Weather Stations
Station Observations
GIRWX1
Presovsky Kraj, GiraltovceSK

Presovsky KrajGiraltovceSK

Lat: 49.118, Lon: 21.52

Elevation: 630

Station Type: wh1080

http://www.meteogiraltovce.wz.cz/

High Low Average
Temperature 53.6°F12.0°C 42.4°F5.8°C 50.0°F10.0°C
Dew Point 46.9°F8.3°C 39.3°F4.1°C 43.6°F6.4°C
Winds 14.5 mph 23.3 kmh Calm Calm 5.0 mph SSE8.0 kmh SSE
Wind Gusts 23.5 mph37.8 kmh -- 9.0 mph14.5 kmh
Humidity 90% 64% 79%
Pressure 30.06 in1017.9 mb 30.01 in1016.3 mb -
Precipitation 0.16 in4.1 mm - -
Hour Temp Dew Point Humidity Winds Wind Gusts Pressure Precip Precip Rate Daily Precip Total
12:00 AM 42.4°F5.8°C 39.3°F4.1°C 88% Calm Calm 0.7 mph1.1 kmh 30.05 in1017.6 mb 0.02 in0.5 mm 0.00 in0.0 mm 0.02 in0.5 mm
12:05 AM 42.4°F5.8°C 39.4°F4.1°C 89% Calm Calm 0.7 mph1.1 kmh 30.05 in1017.6 mb 0.02 in0.5 mm 0.00 in0.0 mm 0.02 in0.5 mm
12:10 AM 42.6°F5.9°C 39.5°F4.2°C 89% 0.3 mph NW0.5 kmh NW 1.6 mph2.6 kmh 30.05 in1017.6 mb 0.02 in0.5 mm 0.00 in0.0 mm 0.02 in0.5 mm
12:15 AM 42.6°F5.9°C 39.6°F4.2°C 89% 0.2 mph E0.3 kmh E 1.6 mph2.6 kmh 30.05 in1017.6 mb 0.02 in0.5 mm 0.00 in0.0 mm 0.02 in0.5 mm
12:20 AM 42.6°F5.9°C 39.6°F4.2°C 89% Calm Calm 0.7 mph1.1 kmh 30.05 in1017.6 mb 0.02 in0.5 mm 0.00 in0.0 mm 0.02 in0.5 mm
12:25 AM 42.7°F5.9°C 39.7°F4.3°C 89% 0.2 mph W0.3 kmh W 0.7 mph1.1 kmh 30.05 in1017.6 mb 0.02 in0.5 mm 0.00 in0.0 mm 0.02 in0.5 mm
12:30 AM 42.8°F6.0°C 39.8°F4.3°C 89% Calm Calm 0.7 mph1.1 kmh 30.05 in1017.6 mb 0.02 in0.5 mm 0.00 in0.0 mm 0.01 in0.3 mm
12:35 AM 42.8°F6.0°C 39.8°F4.3°C 89% 0.1 mph W0.2 kmh W 0.7 mph1.1 kmh 30.05 in1017.6 mb 0.02 in0.5 mm 0.00 in0.0 mm 0.01 in0.3 mm
12:40 AM 42.8°F6.0°C 39.8°F4.3°C 89% 0.3 mph W0.5 kmh W 1.6 mph2.6 kmh 30.05 in1017.6 mb 0.02 in0.5 mm 0.00 in0.0 mm 0.01 in0.3 mm
12:45 AM 42.8°F6.0°C 39.8°F4.3°C 89% Calm Calm 0.7 mph1.1 kmh 30.05 in1017.6 mb 0.02 in0.5 mm 0.00 in0.0 mm 0.01 in0.3 mm
12:50 AM 42.8°F6.0°C 39.8°F4.3°C 89% Calm Calm 0.7 mph1.1 kmh 30.05 in1017.6 mb 0.02 in0.5 mm 0.00 in0.0 mm 0.02 in0.5 mm
12:55 AM 42.8°F6.0°C 39.8°F4.3°C 89% Calm Calm 0.7 mph1.1 kmh 30.05 in1017.6 mb 0.02 in0.5 mm 0.00 in0.0 mm 0.02 in0.5 mm
01:00 AM 42.9°F6.1°C 39.8°F4.3°C 89% Calm Calm 0.7 mph1.1 kmh 30.05 in1017.6 mb 0.02 in0.5 mm 0.00 in0.0 mm 0.02 in0.5 mm
01:05 AM 43.0°F6.1°C 40.0°F4.4°C 89% Calm Calm 0.7 mph1.1 kmh 30.04 in1017.3 mb 0.02 in0.5 mm 0.00 in0.0 mm 0.02 in0.5 mm
01:10 AM 43.0°F6.1°C 40.0°F4.4°C 89% Calm Calm -- 30.05 in1017.6 mb 0.03 in0.8 mm 0.12 in3.0 mm 0.03 in0.8 mm
01:15 AM 43.0°F6.1°C 40.0°F4.4°C 89% Calm Calm -- 30.05 in1017.6 mb 0.03 in0.8 mm 0.00 in0.0 mm 0.03 in0.8 mm
01:20 AM 43.2°F6.2°C 40.1°F4.5°C 89% Calm Calm 0.7 mph1.1 kmh 30.04 in1017.3 mb 0.03 in0.8 mm 0.00 in0.0 mm 0.04 in1.0 mm
01:25 AM 43.2°F6.2°C 40.1°F4.5°C 89% 0.3 mph NE0.5 kmh NE 1.6 mph2.6 kmh 30.04 in1017.3 mb 0.03 in0.8 mm 0.00 in0.0 mm 0.04 in1.0 mm
01:30 AM 43.2°F6.2°C 40.3°F4.6°C 90% 0.5 mph NE0.8 kmh NE 1.6 mph2.6 kmh 30.04 in1017.3 mb 0.03 in0.8 mm 0.00 in0.0 mm 0.04 in1.0 mm
01:35 AM 43.2°F6.2°C 40.4°F4.7°C 90% 0.4 mph W0.6 kmh W 1.6 mph2.6 kmh 30.05 in1017.6 mb 0.04 in1.0 mm 0.12 in3.0 mm 0.04 in1.0 mm
01:40 AM 43.2°F6.2°C 40.4°F4.7°C 90% 0.3 mph W0.5 kmh W 1.6 mph2.6 kmh 30.04 in1017.3 mb 0.04 in1.0 mm 0.00 in0.0 mm 0.05 in1.3 mm
01:45 AM 43.2°F6.2°C 40.5°F4.7°C 90% 1.1 mph W1.8 kmh W 3.8 mph6.1 kmh 30.04 in1017.3 mb 0.04 in1.0 mm 0.00 in0.0 mm 0.05 in1.3 mm
01:50 AM 43.3°F6.3°C 40.6°F4.8°C 90% 2.0 mph W3.2 kmh W 3.1 mph5.0 kmh 30.05 in1017.6 mb 0.04 in1.0 mm 0.00 in0.0 mm 0.06 in1.5 mm
01:55 AM 43.3°F6.3°C 40.6°F4.8°C 90% 1.3 mph NW2.1 kmh NW 2.2 mph3.5 kmh 30.04 in1017.3 mb 0.04 in1.0 mm 0.00 in0.0 mm 0.06 in1.5 mm
02:00 AM 43.2°F6.2°C 40.4°F4.7°C 90% 0.9 mph ENE1.4 kmh ENE 1.6 mph2.6 kmh 30.04 in1017.3 mb 0.04 in1.0 mm 0.00 in0.0 mm 0.06 in1.5 mm
02:05 AM 43.2°F6.2°C 40.4°F4.7°C 90% 1.6 mph NE2.6 kmh NE 1.6 mph2.6 kmh 30.04 in1017.3 mb 0.04 in1.0 mm 0.00 in0.0 mm 0.06 in1.5 mm
02:10 AM 43.2°F6.2°C 40.4°F4.7°C 90% 1.1 mph NE1.8 kmh NE 1.6 mph2.6 kmh 30.04 in1017.3 mb 0.04 in1.0 mm 0.00 in0.0 mm 0.06 in1.5 mm
02:15 AM 43.2°F6.2°C 40.4°F4.7°C 90% 1.6 mph NE2.6 kmh NE 2.2 mph3.5 kmh 30.04 in1017.3 mb 0.03 in0.8 mm 0.00 in0.0 mm 0.06 in1.5 mm
02:20 AM 43.2°F6.2°C 40.5°F4.7°C 90% 0.4 mph SW0.6 kmh SW 1.6 mph2.6 kmh 30.04 in1017.3 mb 0.03 in0.8 mm 0.00 in0.0 mm 0.06 in1.5 mm
02:25 AM 43.3°F6.3°C 40.6°F4.8°C 90% 1.4 mph SW2.3 kmh SW 3.1 mph5.0 kmh 30.04 in1017.3 mb 0.03 in0.8 mm 0.00 in0.0 mm 0.06 in1.5 mm
02:30 AM 43.3°F6.3°C 40.6°F4.8°C 90% 0.7 mph W1.1 kmh W 1.6 mph2.6 kmh 30.04 in1017.3 mb 0.03 in0.8 mm 0.00 in0.0 mm 0.07 in1.8 mm
02:35 AM 43.3°F6.3°C 40.6°F4.8°C 90% 0.4 mph NW0.6 kmh NW 1.6 mph2.6 kmh 30.04 in1017.3 mb 0.02 in0.5 mm 0.00 in0.0 mm 0.07 in1.8 mm
02:40 AM 43.3°F6.3°C 40.6°F4.8°C 90% Calm Calm 0.7 mph1.1 kmh 30.04 in1017.3 mb 0.02 in0.5 mm 0.00 in0.0 mm 0.07 in1.8 mm
02:45 AM 43.5°F6.4°C 40.8°F4.9°C 90% 0.1 mph NE0.2 kmh NE 1.6 mph2.6 kmh 30.03 in1016.9 mb 0.02 in0.5 mm 0.00 in0.0 mm 0.07 in1.8 mm
02:50 AM 43.5°F6.4°C 40.8°F4.9°C 90% 1.3 mph N2.1 kmh N 2.2 mph3.5 kmh 30.03 in1016.9 mb 0.01 in0.3 mm 0.00 in0.0 mm 0.07 in1.8 mm
02:55 AM 43.6°F6.4°C 40.9°F4.9°C 90% 0.9 mph NNE1.4 kmh NNE 2.2 mph3.5 kmh 30.03 in1016.9 mb 0.01 in0.3 mm 0.00 in0.0 mm 0.07 in1.8 mm
03:00 AM 43.7°F6.5°C 41.0°F5.0°C 90% 1.8 mph NE2.9 kmh NE 3.8 mph6.1 kmh 30.03 in1016.9 mb 0.01 in0.3 mm 0.00 in0.0 mm 0.07 in1.8 mm
03:05 AM 43.8°F6.6°C 41.1°F5.1°C 90% 2.2 mph NE3.5 kmh NE 3.8 mph6.1 kmh 30.03 in1016.9 mb 0.01 in0.3 mm 0.00 in0.0 mm 0.07 in1.8 mm
03:10 AM 43.9°F6.6°C 41.1°F5.1°C 90% 1.8 mph NE2.9 kmh NE 3.1 mph5.0 kmh 30.03 in1016.9 mb 0.01 in0.3 mm 0.00 in0.0 mm 0.07 in1.8 mm
03:15 AM 43.9°F6.6°C 41.1°F5.1°C 90% 0.4 mph 0.6 kmh 1.6 mph2.6 kmh 30.03 in1016.9 mb 0.01 in0.3 mm 0.00 in0.0 mm 0.07 in1.8 mm
03:20 AM 43.9°F6.6°C 41.1°F5.1°C 90% 0.3 mph NW0.5 kmh NW 1.6 mph2.6 kmh 30.02 in1016.6 mb 0.01 in0.3 mm 0.00 in0.0 mm 0.07 in1.8 mm
03:25 AM 44.0°F6.7°C 41.2°F5.1°C 90% 1.9 mph NNE3.1 kmh NNE 3.8 mph6.1 kmh 30.02 in1016.6 mb 0.02 in0.5 mm 0.12 in3.0 mm 0.08 in2.0 mm
03:30 AM 44.1°F6.7°C 41.4°F5.2°C 90% 2.7 mph N4.3 kmh N 4.5 mph7.2 kmh 30.02 in1016.6 mb 0.02 in0.5 mm 0.00 in0.0 mm 0.09 in2.3 mm
03:35 AM 44.3°F6.8°C 41.6°F5.3°C 90% 2.3 mph NE3.7 kmh NE 3.8 mph6.1 kmh 30.02 in1016.6 mb 0.02 in0.5 mm 0.00 in0.0 mm 0.09 in2.3 mm
03:40 AM 44.4°F6.9°C 41.7°F5.4°C 90% 0.7 mph SE1.1 kmh SE 3.1 mph5.0 kmh 30.02 in1016.6 mb 0.02 in0.5 mm 0.00 in0.0 mm 0.09 in2.3 mm
03:45 AM 44.4°F6.9°C 41.7°F5.4°C 90% 2.4 mph WSW3.9 kmh WSW 4.5 mph7.2 kmh 30.02 in1016.6 mb 0.03 in0.8 mm 0.12 in3.0 mm 0.09 in2.3 mm
03:50 AM 44.4°F6.9°C 41.7°F5.4°C 90% 2.3 mph SW3.7 kmh SW 4.5 mph7.2 kmh 30.03 in1016.9 mb 0.03 in0.8 mm 0.00 in0.0 mm 0.10 in2.5 mm
03:55 AM 44.3°F6.8°C 41.5°F5.3°C 90% 1.0 mph SW1.6 kmh SW 2.2 mph3.5 kmh 30.02 in1016.6 mb 0.03 in0.8 mm 0.00 in0.0 mm 0.10 in2.5 mm
04:00 AM 44.2°F6.8°C 41.4°F5.2°C 90% 0.7 mph NE1.1 kmh NE 2.2 mph3.5 kmh 30.02 in1016.6 mb 0.03 in0.8 mm 0.00 in0.0 mm 0.10 in2.5 mm
04:05 AM 44.1°F6.7°C 41.3°F5.2°C 90% 0.7 mph NE1.1 kmh NE 1.6 mph2.6 kmh 30.02 in1016.6 mb 0.03 in0.8 mm 0.00 in0.0 mm 0.10 in2.5 mm
04:10 AM 44.1°F6.7°C 41.3°F5.2°C 90% 1.2 mph NNE1.9 kmh NNE 3.1 mph5.0 kmh 30.02 in1016.6 mb 0.03 in0.8 mm 0.00 in0.0 mm 0.10 in2.5 mm
04:15 AM 44.1°F6.7°C 41.4°F5.2°C 90% 2.2 mph NNE3.5 kmh NNE 3.8 mph6.1 kmh 30.02 in1016.6 mb 0.03 in0.8 mm 0.00 in0.0 mm 0.10 in2.5 mm
04:20 AM 44.2°F6.8°C 41.5°F5.3°C 90% 2.1 mph NE3.4 kmh NE 3.8 mph6.1 kmh 30.02 in1016.6 mb 0.03 in0.8 mm 0.00 in0.0 mm 0.10 in2.5 mm
04:25 AM 44.3°F6.8°C 41.5°F5.3°C 90% 0.8 mph WSW1.3 kmh WSW 3.1 mph5.0 kmh 30.02 in1016.6 mb 0.03 in0.8 mm 0.00 in0.0 mm 0.11 in2.8 mm
04:30 AM 44.4°F6.9°C 41.7°F5.4°C 90% 2.3 mph WSW3.7 kmh WSW 4.5 mph7.2 kmh 30.02 in1016.6 mb 0.02 in0.5 mm 0.00 in0.0 mm 0.11 in2.8 mm
04:35 AM 44.4°F6.9°C 41.7°F5.4°C 90% 1.2 mph ENE1.9 kmh ENE 3.1 mph5.0 kmh 30.02 in1016.6 mb 0.02 in0.5 mm 0.00 in0.0 mm 0.11 in2.8 mm
04:40 AM 44.4°F6.9°C 41.7°F5.4°C 90% 0.9 mph WSW1.4 kmh WSW 3.1 mph5.0 kmh 30.02 in1016.6 mb 0.02 in0.5 mm 0.00 in0.0 mm 0.11 in2.8 mm
04:45 AM 44.5°F6.9°C 41.7°F5.4°C 90% 2.5 mph NW4.0 kmh NW 3.8 mph6.1 kmh 30.02 in1016.6 mb 0.02 in0.5 mm 0.00 in0.0 mm 0.11 in2.8 mm
04:50 AM 44.6°F7.0°C 41.9°F5.5°C 90% 1.5 mph WNW2.4 kmh WNW 3.1 mph5.0 kmh 30.02 in1016.6 mb 0.01 in0.3 mm 0.00 in0.0 mm 0.11 in2.8 mm
04:55 AM 44.9°F7.2°C 42.2°F5.7°C 90% 2.9 mph SSE4.7 kmh SSE 9.8 mph15.8 kmh 30.02 in1016.6 mb 0.02 in0.5 mm 0.12 in3.0 mm 0.11 in2.8 mm
05:00 AM 45.7°F7.6°C 42.6°F5.9°C 89% 4.6 mph S7.4 kmh S 9.8 mph15.8 kmh 30.02 in1016.6 mb 0.01 in0.3 mm 0.00 in0.0 mm 0.11 in2.8 mm
05:05 AM 46.8°F8.2°C 43.0°F6.1°C 87% 6.9 mph SSW11.1 kmh SSW 9.8 mph15.8 kmh 30.02 in1016.6 mb 0.01 in0.3 mm 0.00 in0.0 mm 0.11 in2.8 mm
05:10 AM 47.8°F8.8°C 44.4°F6.9°C 88% 8.8 mph SE14.2 kmh SE 13.6 mph21.9 kmh 30.02 in1016.6 mb 0.01 in0.3 mm 0.00 in0.0 mm 0.11 in2.8 mm
05:15 AM 48.4°F9.1°C 45.1°F7.3°C 88% 4.2 mph SSE6.8 kmh SSE 6.0 mph9.7 kmh 30.02 in1016.6 mb 0.01 in0.3 mm 0.00 in0.0 mm 0.11 in2.8 mm
05:20 AM 48.8°F9.3°C 45.7°F7.6°C 89% 9.4 mph S15.1 kmh S 15.9 mph25.6 kmh 30.02 in1016.6 mb 0.01 in0.3 mm 0.00 in0.0 mm 0.11 in2.8 mm
05:25 AM 49.1°F9.5°C 46.0°F7.8°C 89% 9.2 mph SSE14.8 kmh SSE 15.9 mph25.6 kmh 30.02 in1016.6 mb 0.01 in0.3 mm 0.00 in0.0 mm 0.12 in3.0 mm
05:30 AM 49.3°F9.6°C 46.2°F7.9°C 89% 11.3 mph SE18.2 kmh SE 17.4 mph28.0 kmh 30.02 in1016.6 mb 0.01 in0.3 mm 0.00 in0.0 mm 0.12 in3.0 mm
05:35 AM 49.5°F9.7°C 46.4°F8.0°C 89% 8.6 mph S13.8 kmh S 14.5 mph23.3 kmh 30.02 in1016.6 mb 0.01 in0.3 mm 0.00 in0.0 mm 0.12 in3.0 mm
05:40 AM 49.8°F9.9°C 46.6°F8.1°C 89% 11.0 mph SSE17.7 kmh SSE 15.2 mph24.5 kmh 30.02 in1016.6 mb 0.01 in0.3 mm 0.00 in0.0 mm 0.12 in3.0 mm
05:45 AM 49.9°F9.9°C 46.8°F8.2°C 89% 9.9 mph SSE15.9 kmh SSE 15.2 mph24.5 kmh 30.02 in1016.6 mb 0.01 in0.3 mm 0.00 in0.0 mm 0.12 in3.0 mm
05:50 AM 50.0°F10.0°C 46.9°F8.3°C 89% 9.8 mph S15.8 kmh S 15.2 mph24.5 kmh 30.02 in1016.6 mb 0.01 in0.3 mm 0.00 in0.0 mm 0.12 in3.0 mm
05:55 AM 50.2°F10.1°C 46.8°F8.2°C 88% 7.4 mph SSE11.9 kmh SSE 10.7 mph17.2 kmh 30.02 in1016.6 mb 0.00 in0.0 mm 0.00 in0.0 mm 0.12 in3.0 mm
06:00 AM 50.4°F10.2°C 46.8°F8.2°C 87% 9.7 mph SE15.6 kmh SE 13.0 mph20.9 kmh 30.02 in1016.6 mb 0.00 in0.0 mm 0.00 in0.0 mm 0.12 in3.0 mm
06:05 AM 50.4°F10.2°C 46.6°F8.1°C 87% 9.8 mph S15.8 kmh S 12.1 mph19.5 kmh 30.02 in1016.6 mb 0.00 in0.0 mm 0.00 in0.0 mm 0.12 in3.0 mm
06:10 AM 50.5°F10.3°C 46.4°F8.0°C 86% 10.8 mph S17.4 kmh S 20.6 mph33.2 kmh 30.02 in1016.6 mb 0.00 in0.0 mm 0.00 in0.0 mm 0.12 in3.0 mm
06:15 AM 50.7°F10.4°C 46.1°F7.8°C 84% 11.2 mph S18.0 kmh S 17.4 mph28.0 kmh 30.02 in1016.6 mb 0.00 in0.0 mm 0.00 in0.0 mm 0.12 in3.0 mm
06:20 AM 50.8°F10.4°C 45.8°F7.7°C 83% 12.2 mph S19.6 kmh S 18.3 mph29.5 kmh 30.02 in1016.6 mb 0.00 in0.0 mm 0.00 in0.0 mm 0.12 in3.0 mm
06:25 AM 50.9°F10.5°C 45.6°F7.6°C 82% 8.1 mph S13.0 kmh S 12.1 mph19.5 kmh 30.02 in1016.6 mb 0.00 in0.0 mm 0.00 in0.0 mm 0.12 in3.0 mm
06:30 AM 50.9°F10.5°C 45.3°F7.4°C 81% 8.3 mph S13.4 kmh S 15.2 mph24.5 kmh 30.02 in1016.6 mb 0.00 in0.0 mm 0.00 in0.0 mm 0.12 in3.0 mm
06:35 AM 50.9°F10.5°C 45.3°F7.4°C 81% 7.0 mph S11.3 kmh S 11.4 mph18.3 kmh 30.02 in1016.6 mb 0.00 in0.0 mm 0.00 in0.0 mm 0.12 in3.0 mm
06:40 AM 50.9°F10.5°C 45.0°F7.2°C 80% 8.5 mph S13.7 kmh S 12.1 mph19.5 kmh 30.02 in1016.6 mb 0.00 in0.0 mm 0.00 in0.0 mm 0.12 in3.0 mm
06:45 AM 50.9°F10.5°C 45.0°F7.2°C 80% 4.7 mph S7.6 kmh S 8.3 mph13.4 kmh 30.02 in1016.6 mb 0.00 in0.0 mm 0.00 in0.0 mm 0.12 in3.0 mm
06:50 AM 50.7°F10.4°C 44.8°F7.1°C 80% 4.1 mph SW6.6 kmh SW 5.4 mph8.7 kmh 30.02 in1016.6 mb 0.00 in0.0 mm 0.00 in0.0 mm 0.12 in3.0 mm
06:55 AM 50.7°F10.4°C 44.8°F7.1°C 80% 4.9 mph SSW7.9 kmh SSW 9.2 mph14.8 kmh 30.02 in1016.6 mb 0.00 in0.0 mm 0.00 in0.0 mm 0.12 in3.0 mm
07:00 AM 50.5°F10.3°C 44.6°F7.0°C 80% 5.0 mph SSW8.0 kmh SSW 8.3 mph13.4 kmh 30.02 in1016.6 mb 0.00 in0.0 mm 0.00 in0.0 mm 0.12 in3.0 mm
07:05 AM 50.5°F10.3°C 44.6°F7.0°C 80% 3.7 mph S6.0 kmh S 7.6 mph12.2 kmh 30.02 in1016.6 mb 0.00 in0.0 mm 0.00 in0.0 mm 0.12 in3.0 mm
07:10 AM 50.5°F10.3°C 44.6°F7.0°C 80% 4.8 mph SSE7.7 kmh SSE 9.2 mph14.8 kmh 30.02 in1016.6 mb 0.00 in0.0 mm 0.00 in0.0 mm 0.12 in3.0 mm
07:15 AM 50.5°F10.3°C 44.6°F7.0°C 80% 4.0 mph S6.4 kmh S 5.4 mph8.7 kmh 30.02 in1016.6 mb 0.00 in0.0 mm 0.00 in0.0 mm 0.12 in3.0 mm
07:20 AM 50.5°F10.3°C 44.8°F7.1°C 81% 1.0 mph SW1.6 kmh SW 3.1 mph5.0 kmh 30.02 in1016.6 mb 0.00 in0.0 mm 0.00 in0.0 mm 0.12 in3.0 mm
07:25 AM 50.5°F10.3°C 44.9°F7.2°C 81% 1.2 mph WSW1.9 kmh WSW 2.2 mph3.5 kmh 30.02 in1016.6 mb 0.00 in0.0 mm 0.00 in0.0 mm 0.12 in3.0 mm
07:30 AM 50.4°F10.2°C 44.8°F7.1°C 81% 1.7 mph SE2.7 kmh SE 3.1 mph5.0 kmh 30.02 in1016.6 mb 0.00 in0.0 mm 0.00 in0.0 mm 0.12 in3.0 mm
07:35 AM 50.4°F10.2°C 44.8°F7.1°C 81% 1.9 mph ESE3.1 kmh ESE 4.5 mph7.2 kmh 30.02 in1016.6 mb 0.00 in0.0 mm 0.00 in0.0 mm 0.12 in3.0 mm
07:40 AM 50.4°F10.2°C 44.8°F7.1°C 81% 1.7 mph SW2.7 kmh SW 3.1 mph5.0 kmh 30.02 in1016.6 mb 0.00 in0.0 mm 0.00 in0.0 mm 0.12 in3.0 mm
07:45 AM 50.3°F10.2°C 44.7°F7.1°C 81% 2.8 mph S4.5 kmh S 4.5 mph7.2 kmh 30.03 in1016.9 mb 0.00 in0.0 mm 0.00 in0.0 mm 0.12 in3.0 mm
07:50 AM 50.2°F10.1°C 44.6°F7.0°C 81% 5.1 mph S8.2 kmh S 9.2 mph14.8 kmh 30.03 in1016.9 mb 0.00 in0.0 mm 0.00 in0.0 mm 0.12 in3.0 mm
07:55 AM 50.2°F10.1°C 44.6°F7.0°C 81% 3.5 mph S5.6 kmh S 5.4 mph8.7 kmh 30.03 in1016.9 mb 0.00 in0.0 mm 0.00 in0.0 mm 0.12 in3.0 mm
08:00 AM 50.2°F10.1°C 44.6°F7.0°C 81% 2.6 mph SSW4.2 kmh SSW 6.0 mph9.7 kmh 30.03 in1016.9 mb 0.00 in0.0 mm 0.00 in0.0 mm 0.12 in3.0 mm
08:05 AM 50.2°F10.1°C 44.6°F7.0°C 81% 3.1 mph E5.0 kmh E 4.5 mph7.2 kmh 30.03 in1016.9 mb 0.00 in0.0 mm 0.00 in0.0 mm 0.12 in3.0 mm
08:10 AM 50.2°F10.1°C 44.6°F7.0°C 81% 3.2 mph S5.1 kmh S 6.0 mph9.7 kmh 30.03 in1016.9 mb 0.01 in0.3 mm 0.12 in3.0 mm 0.13 in3.3 mm
08:15 AM 50.2°F10.1°C 44.6°F7.0°C 81% 3.5 mph SSE5.6 kmh SSE 6.9 mph11.1 kmh 30.03 in1016.9 mb 0.01 in0.3 mm 0.00 in0.0 mm 0.13 in3.3 mm
08:20 AM 50.2°F10.1°C 44.6°F7.0°C 81% 4.3 mph SE6.9 kmh SE 6.0 mph9.7 kmh 30.03 in1016.9 mb 0.01 in0.3 mm 0.00 in0.0 mm 0.13 in3.3 mm
08:25 AM 50.2°F10.1°C 44.6°F7.0°C 81% 5.4 mph SE8.7 kmh SE 9.2 mph14.8 kmh 30.03 in1016.9 mb 0.01 in0.3 mm 0.00 in0.0 mm 0.13 in3.3 mm
08:30 AM 50.2°F10.1°C 44.6°F7.0°C 81% 2.8 mph SSE4.5 kmh SSE 6.0 mph9.7 kmh 30.04 in1017.3 mb 0.01 in0.3 mm 0.00 in0.0 mm 0.13 in3.3 mm
08:35 AM 50.2°F10.1°C 44.6°F7.0°C 81% 4.8 mph S7.7 kmh S 7.6 mph12.2 kmh 30.04 in1017.3 mb 0.01 in0.3 mm 0.00 in0.0 mm 0.13 in3.3 mm
08:40 AM 50.4°F10.2°C 44.8°F7.1°C 81% 3.1 mph S5.0 kmh S 5.4 mph8.7 kmh 30.04 in1017.3 mb 0.01 in0.3 mm 0.00 in0.0 mm 0.13 in3.3 mm
08:45 AM 50.4°F10.2°C 44.8°F7.1°C 81% 2.8 mph S4.5 kmh S 3.8 mph6.1 kmh 30.04 in1017.3 mb 0.01 in0.3 mm 0.00 in0.0 mm 0.13 in3.3 mm
08:50 AM 50.4°F10.2°C 44.8°F7.1°C 81% 3.4 mph S5.5 kmh S 9.2 mph14.8 kmh 30.04 in1017.3 mb 0.02 in0.5 mm 0.12 in3.0 mm 0.13 in3.3 mm
08:55 AM 50.4°F10.2°C 44.8°F7.1°C 81% 5.6 mph S9.0 kmh S 9.8 mph15.8 kmh 30.04 in1017.3 mb 0.02 in0.5 mm 0.00 in0.0 mm 0.14 in3.6 mm
09:00 AM 50.4°F10.2°C 44.8°F7.1°C 81% 4.3 mph S6.9 kmh S 7.6 mph12.2 kmh 30.04 in1017.3 mb 0.02 in0.5 mm 0.00 in0.0 mm 0.14 in3.6 mm
09:05 AM 50.4°F10.2°C 44.8°F7.1°C 81% 3.3 mph S5.3 kmh S 6.9 mph11.1 kmh 30.04 in1017.3 mb 0.02 in0.5 mm 0.00 in0.0 mm 0.14 in3.6 mm
09:10 AM 50.5°F10.3°C 44.9°F7.2°C 81% 5.3 mph S8.5 kmh S 8.3 mph13.4 kmh 30.04 in1017.3 mb 0.02 in0.5 mm 0.00 in0.0 mm 0.14 in3.6 mm
09:15 AM 50.5°F10.3°C 44.9°F7.2°C 81% 6.1 mph SSE9.8 kmh SSE 10.7 mph17.2 kmh 30.04 in1017.3 mb 0.02 in0.5 mm 0.00 in0.0 mm 0.14 in3.6 mm
09:20 AM 50.5°F10.3°C 44.9°F7.2°C 81% 3.6 mph SE5.8 kmh SE 9.2 mph14.8 kmh 30.04 in1017.3 mb 0.02 in0.5 mm 0.00 in0.0 mm 0.14 in3.6 mm
09:25 AM 50.5°F10.3°C 44.9°F7.2°C 81% 4.6 mph SE7.4 kmh SE 9.2 mph14.8 kmh 30.04 in1017.3 mb 0.02 in0.5 mm 0.00 in0.0 mm 0.14 in3.6 mm
09:30 AM 50.5°F10.3°C 44.9°F7.2°C 81% 5.3 mph S8.5 kmh S 8.3 mph13.4 kmh 30.04 in1017.3 mb 0.02 in0.5 mm 0.00 in0.0 mm 0.14 in3.6 mm
09:35 AM 50.7°F10.4°C 45.1°F7.3°C 81% 4.8 mph SSE7.7 kmh SSE 9.2 mph14.8 kmh 30.04 in1017.3 mb 0.01 in0.3 mm 0.00 in0.0 mm 0.14 in3.6 mm
09:40 AM 50.7°F10.4°C 45.1°F7.3°C 81% 5.9 mph S9.5 kmh S 11.4 mph18.3 kmh 30.04 in1017.3 mb 0.01 in0.3 mm 0.00 in0.0 mm 0.14 in3.6 mm
09:45 AM 50.8°F10.4°C 45.2°F7.3°C 81% 5.7 mph SE9.2 kmh SE 9.8 mph15.8 kmh 30.04 in1017.3 mb 0.01 in0.3 mm 0.00 in0.0 mm 0.14 in3.6 mm
09:50 AM 50.9°F10.5°C 45.3°F7.4°C 81% 4.4 mph SE7.1 kmh SE 6.9 mph11.1 kmh 30.04 in1017.3 mb 0.01 in0.3 mm 0.00 in0.0 mm 0.14 in3.6 mm
09:55 AM 50.9°F10.5°C 45.3°F7.4°C 81% 3.9 mph SSE6.3 kmh SSE 6.9 mph11.1 kmh 30.05 in1017.6 mb 0.00 in0.0 mm 0.00 in0.0 mm 0.14 in3.6 mm
10:00 AM 51.0°F10.6°C 45.4°F7.4°C 81% 3.3 mph SSE5.3 kmh SSE 6.0 mph9.7 kmh 30.05 in1017.6 mb 0.00 in0.0 mm 0.00 in0.0 mm 0.14 in3.6 mm
10:05 AM 51.1°F10.6°C 45.5°F7.5°C 81% 3.1 mph S5.0 kmh S 4.5 mph7.2 kmh 30.05 in1017.6 mb 0.00 in0.0 mm 0.00 in0.0 mm 0.14 in3.6 mm
10:10 AM 51.2°F10.7°C 45.6°F7.6°C 81% 3.0 mph SSE4.8 kmh SSE 5.4 mph8.7 kmh 30.05 in1017.6 mb 0.00 in0.0 mm 0.00 in0.0 mm 0.15 in3.8 mm
10:15 AM 51.3°F10.7°C 45.6°F7.6°C 81% 3.8 mph SSE6.1 kmh SSE 6.0 mph9.7 kmh 30.05 in1017.6 mb 0.00 in0.0 mm 0.00 in0.0 mm 0.15 in3.8 mm
10:20 AM 51.3°F10.7°C 45.6°F7.6°C 81% 2.7 mph S4.3 kmh S 4.5 mph7.2 kmh 30.05 in1017.6 mb 0.00 in0.0 mm 0.00 in0.0 mm 0.15 in3.8 mm
10:25 AM 51.3°F10.7°C 45.5°F7.5°C 81% 2.9 mph S4.7 kmh S 4.5 mph7.2 kmh 30.04 in1017.3 mb 0.00 in0.0 mm 0.00 in0.0 mm 0.15 in3.8 mm
10:30 AM 51.3°F10.7°C 45.3°F7.4°C 80% 4.8 mph S7.7 kmh S 8.3 mph13.4 kmh 30.04 in1017.3 mb 0.01 in0.3 mm 0.12 in3.0 mm 0.15 in3.8 mm
10:35 AM 51.3°F10.7°C 45.3°F7.4°C 80% 5.7 mph SE9.2 kmh SE 7.6 mph12.2 kmh 30.04 in1017.3 mb 0.01 in0.3 mm 0.00 in0.0 mm 0.15 in3.8 mm
10:40 AM 51.4°F10.8°C 45.4°F7.4°C 80% 6.6 mph SE10.6 kmh SE 14.5 mph23.3 kmh 30.04 in1017.3 mb 0.01 in0.3 mm 0.00 in0.0 mm 0.15 in3.8 mm
10:45 AM 51.6°F10.9°C 45.6°F7.6°C 80% 5.6 mph SE9.0 kmh SE 9.8 mph15.8 kmh 30.04 in1017.3 mb 0.01 in0.3 mm 0.00 in0.0 mm 0.15 in3.8 mm
10:50 AM 51.6°F10.9°C 45.7°F7.6°C 80% 4.5 mph S7.2 kmh S 8.3 mph13.4 kmh 30.04 in1017.3 mb 0.01 in0.3 mm 0.00 in0.0 mm 0.15 in3.8 mm
10:55 AM 51.8°F11.0°C 45.8°F7.7°C 80% 7.6 mph S12.2 kmh S 15.9 mph25.6 kmh 30.04 in1017.3 mb 0.01 in0.3 mm 0.00 in0.0 mm 0.15 in3.8 mm
11:00 AM 51.8°F11.0°C 45.4°F7.4°C 79% 7.3 mph S11.7 kmh S 14.5 mph23.3 kmh 30.04 in1017.3 mb 0.01 in0.3 mm 0.00 in0.0 mm 0.15 in3.8 mm
11:05 AM 51.7°F10.9°C 45.1°F7.3°C 78% 4.0 mph S6.4 kmh S 6.9 mph11.1 kmh 30.04 in1017.3 mb 0.01 in0.3 mm 0.00 in0.0 mm 0.15 in3.8 mm
11:10 AM 51.8°F11.0°C 45.1°F7.3°C 78% 5.8 mph S9.3 kmh S 11.4 mph18.3 kmh 30.04 in1017.3 mb 0.01 in0.3 mm 0.00 in0.0 mm 0.15 in3.8 mm
11:15 AM 51.8°F11.0°C 45.2°F7.3°C 78% 5.5 mph SSW8.9 kmh SSW 11.4 mph18.3 kmh 30.04 in1017.3 mb 0.01 in0.3 mm 0.00 in0.0 mm 0.16 in4.1 mm
11:20 AM 51.8°F11.0°C 45.4°F7.4°C 79% 7.5 mph S12.1 kmh S 12.1 mph19.5 kmh 30.04 in1017.3 mb 0.01 in0.3 mm 0.00 in0.0 mm 0.16 in4.1 mm
11:25 AM 51.8°F11.0°C 45.2°F7.3°C 78% 6.4 mph SSE10.3 kmh SSE 13.0 mph20.9 kmh 30.03 in1016.9 mb 0.01 in0.3 mm 0.00 in0.0 mm 0.16 in4.1 mm
11:30 AM 52.0°F11.1°C 45.3°F7.4°C 78% 7.3 mph SSE11.7 kmh SSE 12.1 mph19.5 kmh 30.03 in1016.9 mb 0.01 in0.3 mm 0.00 in0.0 mm 0.16 in4.1 mm
11:35 AM 52.0°F11.1°C 45.3°F7.4°C 78% 9.5 mph S15.3 kmh S 14.5 mph23.3 kmh 30.03 in1016.9 mb 0.01 in0.3 mm 0.00 in0.0 mm 0.16 in4.1 mm
11:40 AM 52.0°F11.1°C 45.0°F7.2°C 77% 6.8 mph SSE10.9 kmh SSE 14.5 mph23.3 kmh 30.03 in1016.9 mb 0.01 in0.3 mm 0.00 in0.0 mm 0.16 in4.1 mm
11:45 AM 51.9°F11.1°C 44.9°F7.2°C 77% 7.3 mph S11.7 kmh S 9.8 mph15.8 kmh 30.03 in1016.9 mb 0.01 in0.3 mm 0.00 in0.0 mm 0.16 in4.1 mm
11:50 AM 51.8°F11.0°C 44.8°F7.1°C 77% 10.6 mph SE17.1 kmh SE 15.2 mph24.5 kmh 30.03 in1016.9 mb 0.01 in0.3 mm 0.00 in0.0 mm 0.16 in4.1 mm
11:55 AM 51.8°F11.0°C 44.8°F7.1°C 77% 8.7 mph S14.0 kmh S 14.5 mph23.3 kmh 30.03 in1016.9 mb 0.00 in0.0 mm 0.00 in0.0 mm 0.16 in4.1 mm
12:00 PM 51.8°F11.0°C 44.8°F7.1°C 77% 9.3 mph S15.0 kmh S 12.1 mph19.5 kmh 30.03 in1016.9 mb 0.00 in0.0 mm 0.00 in0.0 mm 0.16 in4.1 mm
12:05 PM 51.8°F11.0°C 44.8°F7.1°C 77% 7.6 mph SE12.2 kmh SE 10.7 mph17.2 kmh 30.03 in1016.9 mb 0.00 in0.0 mm 0.00 in0.0 mm 0.16 in4.1 mm
12:10 PM 51.9°F11.1°C 44.7°F7.1°C 76% 9.8 mph SSE15.8 kmh SSE 14.5 mph23.3 kmh 30.03 in1016.9 mb 0.00 in0.0 mm 0.00 in0.0 mm 0.16 in4.1 mm
12:15 PM 52.0°F11.1°C 44.7°F7.1°C 76% 9.6 mph S15.4 kmh S 15.2 mph24.5 kmh 30.03 in1016.9 mb 0.00 in0.0 mm 0.00 in0.0 mm 0.16 in4.1 mm
12:20 PM 52.2°F11.2°C 44.8°F7.1°C 76% 11.2 mph S18.0 kmh S 14.5 mph23.3 kmh 30.03 in1016.9 mb 0.00 in0.0 mm 0.00 in0.0 mm 0.16 in4.1 mm
12:25 PM 52.2°F11.2°C 44.8°F7.1°C 76% 9.4 mph SE15.1 kmh SE 13.0 mph20.9 kmh 30.02 in1016.6 mb 0.00 in0.0 mm 0.00 in0.0 mm 0.16 in4.1 mm
12:30 PM 52.2°F11.2°C 44.8°F7.1°C 76% 8.9 mph SE14.3 kmh SE 13.0 mph20.9 kmh 30.02 in1016.6 mb 0.00 in0.0 mm 0.00 in0.0 mm 0.16 in4.1 mm
12:35 PM 52.2°F11.2°C 44.8°F7.1°C 76% 6.7 mph SE10.8 kmh SE 10.7 mph17.2 kmh 30.02 in1016.6 mb 0.00 in0.0 mm 0.00 in0.0 mm 0.16 in4.1 mm
12:40 PM 52.2°F11.2°C 44.8°F7.1°C 76% 5.6 mph S9.0 kmh S 10.7 mph17.2 kmh 30.03 in1016.9 mb 0.00 in0.0 mm 0.00 in0.0 mm 0.16 in4.1 mm
12:45 PM 52.2°F11.2°C 44.9°F7.2°C 76% 8.8 mph SE14.2 kmh SE 13.6 mph21.9 kmh 30.02 in1016.6 mb 0.00 in0.0 mm 0.00 in0.0 mm 0.16 in4.1 mm
12:50 PM 52.3°F11.3°C 45.0°F7.2°C 76% 8.0 mph SSE12.9 kmh SSE 13.0 mph20.9 kmh 30.02 in1016.6 mb 0.00 in0.0 mm 0.00 in0.0 mm 0.16 in4.1 mm
12:55 PM 52.5°F11.4°C 45.1°F7.3°C 76% 9.6 mph SE15.4 kmh SE 13.0 mph20.9 kmh 30.02 in1016.6 mb 0.00 in0.0 mm 0.00 in0.0 mm 0.16 in4.1 mm
01:00 PM 52.5°F11.4°C 45.2°F7.3°C 76% 7.7 mph S12.4 kmh S 12.1 mph19.5 kmh 30.02 in1016.6 mb 0.00 in0.0 mm 0.00 in0.0 mm 0.16 in4.1 mm
01:05 PM 52.3°F11.3°C 45.0°F7.2°C 76% 8.4 mph S13.5 kmh S 12.1 mph19.5 kmh 30.02 in1016.6 mb 0.00 in0.0 mm 0.00 in0.0 mm 0.16 in4.1 mm
01:10 PM 52.3°F11.3°C 45.0°F7.2°C 76% 8.7 mph SSE14.0 kmh SSE 14.5 mph23.3 kmh 30.02 in1016.6 mb 0.00 in0.0 mm 0.00 in0.0 mm 0.16 in4.1 mm
01:15 PM 52.2°F11.2°C 44.9°F7.2°C 76% 6.8 mph S10.9 kmh S 9.2 mph14.8 kmh 30.02 in1016.6 mb 0.00 in0.0 mm 0.00 in0.0 mm 0.16 in4.1 mm
01:20 PM 52.2°F11.2°C 44.8°F7.1°C 76% 6.9 mph S11.1 kmh S 9.8 mph15.8 kmh 30.02 in1016.6 mb 0.00 in0.0 mm 0.00 in0.0 mm 0.16 in4.1 mm
01:25 PM 52.2°F11.2°C 44.8°F7.1°C 76% 7.3 mph S11.7 kmh S 11.4 mph18.3 kmh 30.02 in1016.6 mb 0.00 in0.0 mm 0.00 in0.0 mm 0.16 in4.1 mm
01:30 PM 52.2°F11.2°C 44.8°F7.1°C 76% 7.1 mph SSW11.4 kmh SSW 10.7 mph17.2 kmh 30.02 in1016.6 mb 0.00 in0.0 mm 0.00 in0.0 mm 0.16 in4.1 mm
01:35 PM 52.2°F11.2°C 44.8°F7.1°C 76% 6.0 mph SSW9.7 kmh SSW 8.3 mph13.4 kmh 30.02 in1016.6 mb 0.00 in0.0 mm 0.00 in0.0 mm 0.16 in4.1 mm
01:40 PM 52.2°F11.2°C 44.8°F7.1°C 76% 5.5 mph S8.9 kmh S 7.6 mph12.2 kmh 30.02 in1016.6 mb 0.00 in0.0 mm 0.00 in0.0 mm 0.16 in4.1 mm
01:45 PM 52.1°F11.2°C 44.8°F7.1°C 76% 6.4 mph SSW10.3 kmh SSW 9.2 mph14.8 kmh 30.02 in1016.6 mb 0.00 in0.0 mm 0.00 in0.0 mm 0.16 in4.1 mm
01:50 PM 52.0°F11.1°C 44.7°F7.1°C 76% 5.3 mph S8.5 kmh S 9.2 mph14.8 kmh 30.02 in1016.6 mb 0.00 in0.0 mm 0.00 in0.0 mm 0.16 in4.1 mm
01:55 PM 52.0°F11.1°C 44.7°F7.1°C 76% 5.7 mph S9.2 kmh S 7.6 mph12.2 kmh 30.02 in1016.6 mb 0.00 in0.0 mm 0.00 in0.0 mm 0.16 in4.1 mm
02:00 PM 51.8°F11.0°C 44.6°F7.0°C 76% 6.2 mph S10.0 kmh S 9.2 mph14.8 kmh 30.02 in1016.6 mb 0.00 in0.0 mm 0.00 in0.0 mm 0.16 in4.1 mm
02:05 PM 51.8°F11.0°C 44.5°F6.9°C 76% 6.0 mph S9.7 kmh S 7.6 mph12.2 kmh 30.02 in1016.6 mb 0.00 in0.0 mm 0.00 in0.0 mm 0.16 in4.1 mm
02:10 PM 51.8°F11.0°C 44.5°F6.9°C 76% 6.2 mph S10.0 kmh S 10.7 mph17.2 kmh 30.02 in1016.6 mb 0.00 in0.0 mm 0.00 in0.0 mm 0.16 in4.1 mm
02:15 PM 51.6°F10.9°C 44.5°F6.9°C 77% 5.2 mph SSE8.4 kmh SSE 9.2 mph14.8 kmh 30.02 in1016.6 mb 0.00 in0.0 mm 0.00 in0.0 mm 0.16 in4.1 mm
02:20 PM 51.6°F10.9°C 44.6°F7.0°C 77% 5.6 mph S9.0 kmh S 7.6 mph12.2 kmh 30.02 in1016.6 mb 0.00 in0.0 mm 0.00 in0.0 mm 0.16 in4.1 mm
02:25 PM 51.6°F10.9°C 44.6°F7.0°C 77% 5.3 mph S8.5 kmh S 6.9 mph11.1 kmh 30.02 in1016.6 mb 0.00 in0.0 mm 0.00 in0.0 mm 0.16 in4.1 mm
02:30 PM 51.6°F10.9°C 44.6°F7.0°C 77% 5.4 mph SSE8.7 kmh SSE 8.3 mph13.4 kmh 30.02 in1016.6 mb 0.00 in0.0 mm 0.00 in0.0 mm 0.16 in4.1 mm
02:35 PM 51.6°F10.9°C 44.6°F7.0°C 77% 6.0 mph S9.7 kmh S 10.7 mph17.2 kmh 30.02 in1016.6 mb 0.00 in0.0 mm 0.00 in0.0 mm 0.16 in4.1 mm
02:40 PM 51.5°F10.8°C 44.6°F7.0°C 77% 6.6 mph SSE10.6 kmh SSE 10.7 mph17.2 kmh 30.01 in1016.3 mb 0.00 in0.0 mm 0.00 in0.0 mm 0.16 in4.1 mm
02:45 PM 51.6°F10.9°C 44.6°F7.0°C 77% 6.3 mph S10.1 kmh S 9.8 mph15.8 kmh 30.02 in1016.6 mb 0.00 in0.0 mm 0.00 in0.0 mm 0.16 in4.1 mm
02:50 PM 51.6°F10.9°C 44.3°F6.8°C 76% 7.1 mph S11.4 kmh S 9.8 mph15.8 kmh 30.02 in1016.6 mb 0.00 in0.0 mm 0.00 in0.0 mm 0.16 in4.1 mm
02:55 PM 51.6°F10.9°C 44.3°F6.8°C 76% 5.1 mph S8.2 kmh S 6.9 mph11.1 kmh 30.02 in1016.6 mb 0.00 in0.0 mm 0.00 in0.0 mm 0.16 in4.1 mm
03:00 PM 51.7°F10.9°C 44.4°F6.9°C 76% 5.4 mph SSE8.7 kmh SSE 8.3 mph13.4 kmh 30.02 in1016.6 mb 0.00 in0.0 mm 0.00 in0.0 mm 0.16 in4.1 mm
03:05 PM 51.8°F11.0°C 44.5°F6.9°C 76% 4.0 mph S6.4 kmh S 8.3 mph13.4 kmh 30.02 in1016.6 mb 0.00 in0.0 mm 0.00 in0.0 mm 0.16 in4.1 mm
03:10 PM 51.8°F11.0°C 44.5°F6.9°C 76% 4.6 mph SE7.4 kmh SE 6.0 mph9.7 kmh 30.02 in1016.6 mb 0.00 in0.0 mm 0.00 in0.0 mm 0.16 in4.1 mm
03:15 PM 51.8°F11.0°C 44.5°F6.9°C 76% 3.8 mph SE6.1 kmh SE 6.0 mph9.7 kmh 30.02 in1016.6 mb 0.00 in0.0 mm 0.00 in0.0 mm 0.16 in4.1 mm
03:20 PM 51.8°F11.0°C 44.5°F6.9°C 76% 4.2 mph SE6.8 kmh SE 7.6 mph12.2 kmh 30.02 in1016.6 mb 0.00 in0.0 mm 0.00 in0.0 mm 0.16 in4.1 mm
03:25 PM 51.8°F11.0°C 44.5°F6.9°C 76% 3.6 mph SE5.8 kmh SE 7.6 mph12.2 kmh 30.02 in1016.6 mb 0.00 in0.0 mm 0.00 in0.0 mm 0.16 in4.1 mm
03:30 PM 51.8°F11.0°C 44.5°F6.9°C 76% 3.3 mph SE5.3 kmh SE 5.4 mph8.7 kmh 30.02 in1016.6 mb 0.00 in0.0 mm 0.00 in0.0 mm 0.16 in4.1 mm
03:35 PM 51.8°F11.0°C 44.5°F6.9°C 76% 3.1 mph S5.0 kmh S 6.9 mph11.1 kmh 30.02 in1016.6 mb 0.00 in0.0 mm 0.00 in0.0 mm 0.16 in4.1 mm
03:40 PM 51.8°F11.0°C 44.5°F6.9°C 76% 1.9 mph E3.1 kmh E 3.8 mph6.1 kmh 30.02 in1016.6 mb 0.00 in0.0 mm 0.00 in0.0 mm 0.16 in4.1 mm
03:45 PM 51.8°F11.0°C 44.5°F6.9°C 76% 0.6 mph NE1.0 kmh NE 2.2 mph3.5 kmh 30.02 in1016.6 mb 0.00 in0.0 mm 0.00 in0.0 mm 0.16 in4.1 mm
03:50 PM 51.7°F10.9°C 44.4°F6.9°C 76% 1.9 mph NE3.1 kmh NE 3.1 mph5.0 kmh 30.02 in1016.6 mb 0.00 in0.0 mm 0.00 in0.0 mm 0.16 in4.1 mm
03:55 PM 51.6°F10.9°C 44.3°F6.8°C 76% 1.8 mph NE2.9 kmh NE 3.1 mph5.0 kmh 30.03 in1016.9 mb 0.00 in0.0 mm 0.00 in0.0 mm 0.16 in4.1 mm
04:00 PM 51.4°F10.8°C 44.1°F6.7°C 76% 3.0 mph NE4.8 kmh NE 5.4 mph8.7 kmh 30.02 in1016.6 mb 0.00 in0.0 mm 0.00 in0.0 mm 0.16 in4.1 mm
04:05 PM 51.3°F10.7°C 44.0°F6.7°C 76% 3.8 mph NE6.1 kmh NE 4.5 mph7.2 kmh 30.03 in1016.9 mb 0.00 in0.0 mm 0.00 in0.0 mm 0.16 in4.1 mm
04:10 PM 51.3°F10.7°C 44.2°F6.8°C 77% 3.5 mph E5.6 kmh E 5.4 mph8.7 kmh 30.03 in1016.9 mb 0.00 in0.0 mm 0.00 in0.0 mm 0.16 in4.1 mm
04:15 PM 51.3°F10.7°C 44.3°F6.8°C 77% 3.7 mph E6.0 kmh E 5.4 mph8.7 kmh 30.03 in1016.9 mb 0.00 in0.0 mm 0.00 in0.0 mm 0.16 in4.1 mm
04:20 PM 51.3°F10.7°C 44.3°F6.8°C 77% 3.7 mph ESE6.0 kmh ESE 6.0 mph9.7 kmh 30.03 in1016.9 mb 0.00 in0.0 mm 0.00 in0.0 mm 0.16 in4.1 mm
04:25 PM 51.4°F10.8°C 44.5°F6.9°C 77% 3.1 mph SE5.0 kmh SE 5.4 mph8.7 kmh 30.03 in1016.9 mb 0.00 in0.0 mm 0.00 in0.0 mm 0.16 in4.1 mm
04:30 PM 51.4°F10.8°C 44.5°F6.9°C 77% 3.6 mph E5.8 kmh E 6.0 mph9.7 kmh 30.03 in1016.9 mb 0.00 in0.0 mm 0.00 in0.0 mm 0.16 in4.1 mm
04:35 PM 51.6°F10.9°C 44.6°F7.0°C 77% 3.3 mph SE5.3 kmh SE 5.4 mph8.7 kmh 30.03 in1016.9 mb 0.00 in0.0 mm 0.00 in0.0 mm 0.16 in4.1 mm
04:40 PM 51.6°F10.9°C 44.6°F7.0°C 77% 2.4 mph SE3.9 kmh SE 4.5 mph7.2 kmh 30.03 in1016.9 mb 0.00 in0.0 mm 0.00 in0.0 mm 0.16 in4.1 mm
04:45 PM 51.7°F10.9°C 44.8°F7.1°C 77% 3.6 mph ESE5.8 kmh ESE 6.9 mph11.1 kmh 30.03 in1016.9 mb 0.00 in0.0 mm 0.00 in0.0 mm 0.16 in4.1 mm
04:50 PM 51.8°F11.0°C 44.8°F7.1°C 77% 3.0 mph SE4.8 kmh SE 5.4 mph8.7 kmh 30.03 in1016.9 mb 0.00 in0.0 mm 0.00 in0.0 mm 0.16 in4.1 mm
04:55 PM 51.9°F11.1°C 44.9°F7.2°C 77% 3.3 mph SSE5.3 kmh SSE 6.0 mph9.7 kmh 30.03 in1016.9 mb 0.00 in0.0 mm 0.00 in0.0 mm 0.16 in4.1 mm
05:00 PM 52.0°F11.1°C 45.0°F7.2°C 77% 4.3 mph ESE6.9 kmh ESE 6.9 mph11.1 kmh 30.03 in1016.9 mb 0.00 in0.0 mm 0.00 in0.0 mm 0.16 in4.1 mm
05:05 PM 52.2°F11.2°C 45.0°F7.2°C 76% 4.9 mph ESE7.9 kmh ESE 9.8 mph15.8 kmh 30.04 in1017.3 mb 0.00 in0.0 mm 0.00 in0.0 mm 0.16 in4.1 mm
05:10 PM 52.2°F11.2°C 44.9°F7.2°C 76% 5.2 mph SSE8.4 kmh SSE 9.8 mph15.8 kmh 30.04 in1017.3 mb 0.00 in0.0 mm 0.00 in0.0 mm 0.16 in4.1 mm
05:15 PM 52.3°F11.3°C 45.0°F7.2°C 76% 3.9 mph SSE6.3 kmh SSE 7.6 mph12.2 kmh 30.03 in1016.9 mb 0.00 in0.0 mm 0.00 in0.0 mm 0.16 in4.1 mm
05:20 PM 52.5°F11.4°C 45.2°F7.3°C 76% 3.6 mph S5.8 kmh S 6.9 mph11.1 kmh 30.03 in1016.9 mb 0.00 in0.0 mm 0.00 in0.0 mm 0.16 in4.1 mm
05:25 PM 52.6°F11.4°C 45.3°F7.4°C 76% 4.1 mph SE6.6 kmh SE 7.6 mph12.2 kmh 30.03 in1016.9 mb 0.00 in0.0 mm 0.00 in0.0 mm 0.16 in4.1 mm
05:30 PM 52.7°F11.5°C 45.3°F7.4°C 76% 3.2 mph SSE5.1 kmh SSE 5.4 mph8.7 kmh 30.03 in1016.9 mb 0.00 in0.0 mm 0.00 in0.0 mm 0.16 in4.1 mm
05:35 PM 52.7°F11.5°C 45.2°F7.3°C 76% 3.5 mph SSE5.6 kmh SSE 5.4 mph8.7 kmh 30.04 in1017.3 mb 0.00 in0.0 mm 0.00 in0.0 mm 0.16 in4.1 mm
05:40 PM 52.7°F11.5°C 45.0°F7.2°C 75% 3.0 mph SSE4.8 kmh SSE 6.9 mph11.1 kmh 30.04 in1017.3 mb 0.00 in0.0 mm 0.00 in0.0 mm 0.16 in4.1 mm
05:45 PM 52.8°F11.6°C 45.1°F7.3°C 75% 3.4 mph S5.5 kmh S 6.0 mph9.7 kmh 30.04 in1017.3 mb 0.00 in0.0 mm 0.00 in0.0 mm 0.16 in4.1 mm
05:50 PM 52.9°F11.6°C 45.2°F7.3°C 75% 1.5 mph SW2.4 kmh SW 3.1 mph5.0 kmh 30.04 in1017.3 mb 0.00 in0.0 mm 0.00 in0.0 mm 0.16 in4.1 mm
05:55 PM 52.9°F11.6°C 45.2°F7.3°C 75% 2.7 mph S4.3 kmh S 6.9 mph11.1 kmh 30.04 in1017.3 mb 0.00 in0.0 mm 0.00 in0.0 mm 0.16 in4.1 mm
06:00 PM 52.9°F11.6°C 45.2°F7.3°C 75% 3.8 mph S6.1 kmh S 6.0 mph9.7 kmh 30.04 in1017.3 mb 0.00 in0.0 mm 0.00 in0.0 mm 0.16 in4.1 mm
06:05 PM 52.9°F11.6°C 45.2°F7.3°C 75% 4.5 mph SE7.2 kmh SE 5.4 mph8.7 kmh 30.04 in1017.3 mb 0.00 in0.0 mm 0.00 in0.0 mm 0.16 in4.1 mm
06:10 PM 52.9°F11.6°C 45.2°F7.3°C 75% 3.7 mph SE6.0 kmh SE 6.9 mph11.1 kmh 30.04 in1017.3 mb 0.00 in0.0 mm 0.00 in0.0 mm 0.16 in4.1 mm
06:15 PM 52.9°F11.6°C 45.2°F7.3°C 75% 2.3 mph S3.7 kmh S 3.8 mph6.1 kmh 30.04 in1017.3 mb 0.00 in0.0 mm 0.00 in0.0 mm 0.16 in4.1 mm
06:20 PM 52.9°F11.6°C 45.2°F7.3°C 75% 3.3 mph SSE5.3 kmh SSE 6.9 mph11.1 kmh 30.04 in1017.3 mb 0.00 in0.0 mm 0.00 in0.0 mm 0.16 in4.1 mm
06:25 PM 52.9°F11.6°C 45.2°F7.3°C 75% 5.6 mph S9.0 kmh S 8.3 mph13.4 kmh 30.04 in1017.3 mb 0.00 in0.0 mm 0.00 in0.0 mm 0.16 in4.1 mm
06:30 PM 53.0°F11.7°C 45.0°F7.2°C 74% 8.0 mph S12.9 kmh S 13.0 mph20.9 kmh 30.04 in1017.3 mb 0.00 in0.0 mm 0.00 in0.0 mm 0.16 in4.1 mm
06:35 PM 53.1°F11.7°C 45.0°F7.2°C 74% 8.3 mph S13.4 kmh S 13.0 mph20.9 kmh 30.04 in1017.3 mb 0.00 in0.0 mm 0.00 in0.0 mm 0.16 in4.1 mm
06:40 PM 53.2°F11.8°C 45.0°F7.2°C 74% 7.4 mph SSE11.9 kmh SSE 14.5 mph23.3 kmh 30.04 in1017.3 mb 0.00 in0.0 mm 0.00 in0.0 mm 0.16 in4.1 mm
06:45 PM 53.3°F11.8°C 44.9°F7.2°C 73% 9.3 mph SSE15.0 kmh SSE 14.5 mph23.3 kmh 30.04 in1017.3 mb 0.00 in0.0 mm 0.00 in0.0 mm 0.16 in4.1 mm
06:50 PM 53.4°F11.9°C 44.9°F7.2°C 73% 8.0 mph SSE12.9 kmh SSE 14.5 mph23.3 kmh 30.04 in1017.3 mb 0.00 in0.0 mm 0.00 in0.0 mm 0.16 in4.1 mm
06:55 PM 53.4°F11.9°C 44.6°F7.0°C 72% 5.0 mph SSE8.0 kmh SSE 6.9 mph11.1 kmh 30.04 in1017.3 mb 0.00 in0.0 mm 0.00 in0.0 mm 0.16 in4.1 mm
07:00 PM 53.4°F11.9°C 44.6°F7.0°C 72% 8.6 mph SSE13.8 kmh SSE 13.6 mph21.9 kmh 30.04 in1017.3 mb 0.00 in0.0 mm 0.00 in0.0 mm 0.16 in4.1 mm
07:05 PM 53.4°F11.9°C 44.6°F7.0°C 72% 6.8 mph SSE10.9 kmh SSE 13.0 mph20.9 kmh 30.04 in1017.3 mb 0.00 in0.0 mm 0.00 in0.0 mm 0.16 in4.1 mm
07:10 PM 53.4°F11.9°C 44.6°F7.0°C 72% 7.6 mph SSE12.2 kmh SSE 11.4 mph18.3 kmh 30.04 in1017.3 mb 0.00 in0.0 mm 0.00 in0.0 mm 0.16 in4.1 mm
07:15 PM 53.6°F12.0°C 44.5°F6.9°C 71% 6.7 mph SSE10.8 kmh SSE 10.7 mph17.2 kmh 30.04 in1017.3 mb 0.00 in0.0 mm 0.00 in0.0 mm 0.16 in4.1 mm
07:20 PM 53.6°F12.0°C 44.4°F6.9°C 71% 5.3 mph S8.5 kmh S 9.2 mph14.8 kmh 30.04 in1017.3 mb 0.00 in0.0 mm 0.00 in0.0 mm 0.16 in4.1 mm
07:25 PM 53.6°F12.0°C 44.4°F6.9°C 71% 6.3 mph SSE10.1 kmh SSE 12.1 mph19.5 kmh 30.04 in1017.3 mb 0.00 in0.0 mm 0.00 in0.0 mm 0.16 in4.1 mm
07:30 PM 53.5°F11.9°C 44.3°F6.8°C 71% 7.8 mph SSE12.6 kmh SSE 12.1 mph19.5 kmh 30.04 in1017.3 mb 0.00 in0.0 mm 0.00 in0.0 mm 0.16 in4.1 mm
07:35 PM 53.4°F11.9°C 44.3°F6.8°C 71% 8.1 mph SE13.0 kmh SE 10.7 mph17.2 kmh 30.04 in1017.3 mb 0.00 in0.0 mm 0.00 in0.0 mm 0.16 in4.1 mm
07:40 PM 53.4°F11.9°C 44.3°F6.8°C 71% 7.9 mph S12.7 kmh S 12.1 mph19.5 kmh 30.04 in1017.3 mb 0.00 in0.0 mm 0.00 in0.0 mm 0.16 in4.1 mm
07:45 PM 53.3°F11.8°C 44.2°F6.8°C 71% 9.7 mph SSE15.6 kmh SSE 15.9 mph25.6 kmh 30.04 in1017.3 mb 0.00 in0.0 mm 0.00 in0.0 mm 0.16 in4.1 mm
07:50 PM 53.2°F11.8°C 44.1°F6.7°C 71% 8.2 mph SE13.2 kmh SE 12.1 mph19.5 kmh 30.04 in1017.3 mb 0.00 in0.0 mm 0.00 in0.0 mm 0.16 in4.1 mm
07:55 PM 53.2°F11.8°C 44.1°F6.7°C 71% 8.1 mph SSE13.0 kmh SSE 15.2 mph24.5 kmh 30.04 in1017.3 mb 0.00 in0.0 mm 0.00 in0.0 mm 0.16 in4.1 mm
08:00 PM 53.2°F11.8°C 44.1°F6.7°C 71% 12.6 mph SSE20.3 kmh SSE 18.3 mph29.5 kmh 30.04 in1017.3 mb 0.00 in0.0 mm 0.00 in0.0 mm 0.16 in4.1 mm
08:05 PM 53.2°F11.8°C 44.1°F6.7°C 71% 14.5 mph SE23.3 kmh SE 16.8 mph27.0 kmh 30.04 in1017.3 mb 0.00 in0.0 mm 0.00 in0.0 mm 0.16 in4.1 mm
08:10 PM 53.2°F11.8°C 44.0°F6.7°C 71% 10.7 mph SE17.2 kmh SE 16.8 mph27.0 kmh 30.04 in1017.3 mb 0.00 in0.0 mm 0.00 in0.0 mm 0.16 in4.1 mm
08:15 PM 53.1°F11.7°C 43.9°F6.6°C 71% 9.2 mph SSE14.8 kmh SSE 13.6 mph21.9 kmh 30.05 in1017.6 mb 0.00 in0.0 mm 0.00 in0.0 mm 0.16 in4.1 mm
08:20 PM 53.1°F11.7°C 43.8°F6.6°C 71% 7.8 mph SSE12.6 kmh SSE 12.1 mph19.5 kmh 30.05 in1017.6 mb 0.00 in0.0 mm 0.00 in0.0 mm 0.16 in4.1 mm
08:25 PM 53.1°F11.7°C 43.5°F6.4°C 70% 8.5 mph S13.7 kmh S 12.1 mph19.5 kmh 30.05 in1017.6 mb 0.00 in0.0 mm 0.00 in0.0 mm 0.16 in4.1 mm
08:30 PM 53.1°F11.7°C 43.5°F6.4°C 70% 6.7 mph SSE10.8 kmh SSE 11.4 mph18.3 kmh 30.05 in1017.6 mb 0.00 in0.0 mm 0.00 in0.0 mm 0.16 in4.1 mm
08:35 PM 53.1°F11.7°C 43.5°F6.4°C 70% 9.9 mph S15.9 kmh S 17.4 mph28.0 kmh 30.05 in1017.6 mb 0.00 in0.0 mm 0.00 in0.0 mm 0.16 in4.1 mm
08:40 PM 53.1°F11.7°C 43.5°F6.4°C 70% 9.0 mph SE14.5 kmh SE 15.9 mph25.6 kmh 30.05 in1017.6 mb 0.00 in0.0 mm 0.00 in0.0 mm 0.16 in4.1 mm
08:45 PM 53.1°F11.7°C 43.5°F6.4°C 70% 9.3 mph S15.0 kmh S 12.1 mph19.5 kmh 30.05 in1017.6 mb 0.00 in0.0 mm 0.00 in0.0 mm 0.16 in4.1 mm
08:50 PM 53.1°F11.7°C 43.2°F6.2°C 69% 9.4 mph SSE15.1 kmh SSE 13.0 mph20.9 kmh 30.05 in1017.6 mb 0.00 in0.0 mm 0.00 in0.0 mm 0.16 in4.1 mm
08:55 PM 53.2°F11.8°C 43.3°F6.3°C 69% 8.4 mph SSE13.5 kmh SSE 15.2 mph24.5 kmh 30.05 in1017.6 mb 0.00 in0.0 mm 0.00 in0.0 mm 0.16 in4.1 mm
09:00 PM 53.2°F11.8°C 43.1°F6.2°C 68% 9.2 mph S14.8 kmh S 13.0 mph20.9 kmh 30.05 in1017.6 mb 0.00 in0.0 mm 0.00 in0.0 mm 0.16 in4.1 mm
09:05 PM 53.2°F11.8°C 43.0°F6.1°C 68% 8.1 mph SSE13.0 kmh SSE 12.1 mph19.5 kmh 30.05 in1017.6 mb 0.00 in0.0 mm 0.00 in0.0 mm 0.16 in4.1 mm
09:10 PM 53.1°F11.7°C 42.8°F6.0°C 68% 8.2 mph S13.2 kmh S 12.1 mph19.5 kmh 30.05 in1017.6 mb 0.00 in0.0 mm 0.00 in0.0 mm 0.16 in4.1 mm
09:15 PM 53.1°F11.7°C 42.8°F6.0°C 68% 8.1 mph SE13.0 kmh SE 13.0 mph20.9 kmh 30.05 in1017.6 mb 0.00 in0.0 mm 0.00 in0.0 mm 0.16 in4.1 mm
09:20 PM 53.0°F11.7°C 42.7°F5.9°C 68% 6.8 mph S10.9 kmh S 10.7 mph17.2 kmh 30.06 in1017.9 mb 0.00 in0.0 mm 0.00 in0.0 mm 0.16 in4.1 mm
09:25 PM 52.9°F11.6°C 42.6°F5.9°C 68% 10.5 mph SSE16.9 kmh SSE 15.9 mph25.6 kmh 30.05 in1017.6 mb 0.00 in0.0 mm 0.00 in0.0 mm 0.16 in4.1 mm
09:30 PM 52.9°F11.6°C 42.6°F5.9°C 68% 7.2 mph S11.6 kmh S 9.8 mph15.8 kmh 30.05 in1017.6 mb 0.00 in0.0 mm 0.00 in0.0 mm 0.16 in4.1 mm
09:35 PM 52.9°F11.6°C 42.5°F5.8°C 68% 10.5 mph SSE16.9 kmh SSE 15.9 mph25.6 kmh 30.05 in1017.6 mb 0.00 in0.0 mm 0.00 in0.0 mm 0.16 in4.1 mm
09:40 PM 52.9°F11.6°C 42.2°F5.7°C 67% 8.1 mph SSE13.0 kmh SSE 13.0 mph20.9 kmh 30.05 in1017.6 mb 0.00 in0.0 mm 0.00 in0.0 mm 0.16 in4.1 mm
09:45 PM 52.9°F11.6°C 41.8°F5.4°C 66% 8.1 mph S13.0 kmh S 12.1 mph19.5 kmh 30.05 in1017.6 mb 0.00 in0.0 mm 0.00 in0.0 mm 0.16 in4.1 mm
09:50 PM 52.9°F11.6°C 41.8°F5.4°C 66% 7.0 mph SSE11.3 kmh SSE 13.6 mph21.9 kmh 30.05 in1017.6 mb 0.00 in0.0 mm 0.00 in0.0 mm 0.16 in4.1 mm
09:55 PM 52.9°F11.6°C 41.8°F5.4°C 66% 9.7 mph S15.6 kmh S 15.9 mph25.6 kmh 30.05 in1017.6 mb 0.00 in0.0 mm 0.00 in0.0 mm 0.16 in4.1 mm
10:00 PM 52.9°F11.6°C 41.6°F5.3°C 65% 10.2 mph S16.4 kmh S 14.5 mph23.3 kmh 30.05 in1017.6 mb 0.00 in0.0 mm 0.00 in0.0 mm 0.16 in4.1 mm
10:05 PM 52.9°F11.6°C 41.4°F5.2°C 65% 10.7 mph SSW17.2 kmh SSW 14.5 mph23.3 kmh 30.05 in1017.6 mb 0.00 in0.0 mm 0.00 in0.0 mm 0.16 in4.1 mm
10:10 PM 52.9°F11.6°C 41.4°F5.2°C 65% 11.1 mph S17.9 kmh S 19.0 mph30.6 kmh 30.06 in1017.9 mb 0.00 in0.0 mm 0.00 in0.0 mm 0.16 in4.1 mm
10:15 PM 52.7°F11.5°C 41.5°F5.3°C 66% 11.0 mph SSE17.7 kmh SSE 14.5 mph23.3 kmh 30.06 in1017.9 mb 0.00 in0.0 mm 0.00 in0.0 mm 0.16 in4.1 mm
10:20 PM 52.4°F11.3°C 41.9°F5.5°C 67% 9.8 mph SSE15.8 kmh SSE 15.2 mph24.5 kmh 30.06 in1017.9 mb 0.00 in0.0 mm 0.00 in0.0 mm 0.16 in4.1 mm
10:25 PM 52.1°F11.2°C 42.1°F5.6°C 69% 8.0 mph S12.9 kmh S 12.1 mph19.5 kmh 30.06 in1017.9 mb 0.00 in0.0 mm 0.00 in0.0 mm 0.16 in4.1 mm
10:30 PM 51.9°F11.1°C 42.0°F5.6°C 69% 9.3 mph S15.0 kmh S 12.1 mph19.5 kmh 30.06 in1017.9 mb 0.00 in0.0 mm 0.00 in0.0 mm 0.16 in4.1 mm
10:35 PM 51.8°F11.0°C 42.0°F5.6°C 69% 8.8 mph S14.2 kmh S 18.3 mph29.5 kmh 30.06 in1017.9 mb 0.00 in0.0 mm 0.00 in0.0 mm 0.16 in4.1 mm
10:40 PM 51.8°F11.0°C 41.6°F5.3°C 68% 11.7 mph SSW18.8 kmh SSW 18.3 mph29.5 kmh 30.06 in1017.9 mb 0.00 in0.0 mm 0.00 in0.0 mm 0.16 in4.1 mm
10:45 PM 52.0°F11.1°C 41.4°F5.2°C 67% 9.8 mph S15.8 kmh S 19.0 mph30.6 kmh 30.06 in1017.9 mb 0.00 in0.0 mm 0.00 in0.0 mm 0.16 in4.1 mm
10:50 PM 52.1°F11.2°C 41.1°F5.1°C 66% 11.3 mph S18.2 kmh S 16.8 mph27.0 kmh 30.06 in1017.9 mb 0.00 in0.0 mm 0.00 in0.0 mm 0.16 in4.1 mm
10:55 PM 52.2°F11.2°C 41.2°F5.1°C 66% 8.3 mph S13.4 kmh S 13.0 mph20.9 kmh 30.06 in1017.9 mb 0.00 in0.0 mm 0.00 in0.0 mm 0.16 in4.1 mm
11:00 PM 52.2°F11.2°C 41.2°F5.1°C 66% 8.5 mph SSE13.7 kmh SSE 18.3 mph29.5 kmh 30.06 in1017.9 mb 0.00 in0.0 mm 0.00 in0.0 mm 0.16 in4.1 mm
11:05 PM 52.2°F11.2°C 41.0°F5.0°C 66% 7.3 mph S11.7 kmh S 13.0 mph20.9 kmh 30.06 in1017.9 mb 0.00 in0.0 mm 0.00 in0.0 mm 0.16 in4.1 mm
11:10 PM 52.2°F11.2°C 40.8°F4.9°C 65% 8.8 mph SE14.2 kmh SE 15.9 mph25.6 kmh 30.06 in1017.9 mb 0.00 in0.0 mm 0.00 in0.0 mm 0.16 in4.1 mm
11:15 PM 52.2°F11.2°C 40.8°F4.9°C 65% 10.4 mph SSE16.7 kmh SSE 15.9 mph25.6 kmh 30.06 in1017.9 mb 0.00 in0.0 mm 0.00 in0.0 mm 0.16 in4.1 mm
11:20 PM 52.3°F11.3°C 40.9°F4.9°C 65% 11.5 mph SSE18.5 kmh SSE 22.1 mph35.6 kmh 30.06 in1017.9 mb 0.00 in0.0 mm 0.00 in0.0 mm 0.16 in4.1 mm
11:25 PM 52.3°F11.3°C 40.5°F4.7°C 64% 12.8 mph SE20.6 kmh SE 20.6 mph33.2 kmh 30.06 in1017.9 mb 0.00 in0.0 mm 0.00 in0.0 mm 0.16 in4.1 mm
11:30 PM 52.3°F11.3°C 40.5°F4.7°C 64% 11.4 mph S18.3 kmh S 16.8 mph27.0 kmh 30.06 in1017.9 mb 0.00 in0.0 mm 0.00 in0.0 mm 0.16 in4.1 mm
11:35 PM 52.3°F11.3°C 40.5°F4.7°C 64% 11.3 mph S18.2 kmh S 15.9 mph25.6 kmh 30.06 in1017.9 mb 0.00 in0.0 mm 0.00 in0.0 mm 0.16 in4.1 mm
11:40 PM 52.3°F11.3°C 40.5°F4.7°C 64% 12.5 mph SE20.1 kmh SE 23.5 mph37.8 kmh 30.06 in1017.9 mb 0.00 in0.0 mm 0.00 in0.0 mm 0.16 in4.1 mm
11:45 PM 52.2°F11.2°C 40.4°F4.7°C 64% 12.6 mph S20.3 kmh S 19.0 mph30.6 kmh 30.06 in1017.9 mb 0.00 in0.0 mm 0.00 in0.0 mm 0.16 in4.1 mm
11:50 PM 52.2°F11.2°C 40.4°F4.7°C 64% 12.5 mph S20.1 kmh S 20.6 mph33.2 kmh 30.06 in1017.9 mb 0.00 in0.0 mm 0.00 in0.0 mm 0.16 in4.1 mm
11:55 PM 52.2°F11.2°C 40.4°F4.7°C 64% 10.8 mph S17.4 kmh S 15.9 mph25.6 kmh 30.06 in1017.9 mb 0.00 in0.0 mm 0.00 in0.0 mm 0.16 in4.1 mm